Time;durP1;ratioP1;P1;durP2;ratioP2;P2;SDS_P1;SDS_P2;PMS_P1;PMS_P2;Temp;Humidity;BMP_temperature;BMP_pressure;BME280_temperature;BME280_humidity;BME280_pressure;Samples;Min_cycle;Max_cycle;Signal;HPM_P1;HPM_P2
2022/03/24 00:01:29;;;;;;;38.60;26.67;;;;;;;;;;5034620;28;20205;-65
2022/03/24 00:03:55;;;;;;;34.17;26.03;;;;;;;;;;5034577;28;20179;-65
2022/03/24 00:06:21;;;;;;;36.17;25.17;;;;;;;;;;5016961;28;20187;-65
2022/03/24 00:08:47;;;;;;;34.73;26.57;;;;;;;;;;5034850;28;20659;-65
2022/03/24 00:11:13;;;;;;;35.27;26.20;;;;;;;;;;5034397;28;20187;-65
2022/03/24 00:13:39;;;;;;;39.17;25.80;;;;;;;;;;5034605;28;20685;-65
2022/03/24 00:16:05;;;;;;;38.37;26.97;;;;;;;;;;5034695;28;20683;-65
2022/03/24 00:18:32;;;;;;;36.47;27.27;;;;;;;;;;5034723;28;20566;-65
2022/03/24 00:21:01;;;;;;;38.93;26.70;;;;;;;;;;5034600;28;20167;-65
2022/03/24 00:23:27;;;;;;;37.03;26.90;;;;;;;;;;5034119;28;20171;-65
2022/03/24 00:25:53;;;;;;;36.27;27.07;;;;;;;;;;5033588;28;20171;-65
2022/03/24 00:28:19;;;;;;;37.97;28.07;;;;;;;;;;5034101;28;20278;-65
2022/03/24 00:30:46;;;;;;;43.33;29.40;;;;;;;;;;5016236;28;20349;-65
2022/03/24 00:33:12;;;;;;;41.73;27.13;;;;;;;;;;5034336;28;20182;-65
2022/03/24 00:35:38;;;;;;;43.27;29.80;;;;;;;;;;5033936;28;20182;-65
2022/03/24 00:38:05;;;;;;;49.13;31.10;;;;;;;;;;5033842;28;20211;-66
2022/03/24 00:40:32;;;;;;;43.43;30.23;;;;;;;;;;5016435;28;20598;-66
2022/03/24 00:42:59;;;;;;;50.63;32.73;;;;;;;;;;5016085;28;20241;-65
2022/03/24 00:45:25;;;;;;;45.10;30.07;;;;;;;;;;5016217;28;20183;-65
2022/03/24 00:47:51;;;;;;;52.87;34.20;;;;;;;;;;5033916;28;20238;-65
2022/03/24 00:50:17;;;;;;;51.07;33.30;;;;;;;;;;5033831;28;20179;-65
2022/03/24 00:52:44;;;;;;;60.83;37.17;;;;;;;;;;5016069;28;20179;-65
2022/03/24 00:55:12;;;;;;;64.33;39.73;;;;;;;;;;5033708;28;20171;-65
2022/03/24 00:57:38;;;;;;;75.53;46.63;;;;;;;;;;5015465;28;20594;-65
2022/03/24 01:00:04;;;;;;;67.30;42.03;;;;;;;;;;5016813;28;20569;-66
2022/03/24 01:02:30;;;;;;;64.07;42.43;;;;;;;;;;5033949;28;20175;-65
2022/03/24 01:04:56;;;;;;;66.13;41.00;;;;;;;;;;5015697;28;20183;-66
2022/03/24 01:07:23;;;;;;;63.33;39.70;;;;;;;;;;5033518;28;20183;-65
2022/03/24 01:09:49;;;;;;;62.57;38.60;;;;;;;;;;5015941;28;20768;-65
2022/03/24 01:12:16;;;;;;;62.20;36.80;;;;;;;;;;5015885;28;20215;-65
2022/03/24 01:14:42;;;;;;;56.60;35.53;;;;;;;;;;5033399;28;20189;-65
2022/03/24 01:17:10;;;;;;;55.07;35.93;;;;;;;;;;5033324;28;20241;-65
2022/03/24 01:19:37;;;;;;;50.20;33.57;;;;;;;;;;5033552;28;20195;-65
2022/03/24 01:22:03;;;;;;;50.50;33.43;;;;;;;;;;5033794;28;20171;-66
2022/03/24 01:24:29;;;;;;;52.03;33.43;;;;;;;;;;5015792;28;20179;-65
2022/03/24 01:26:55;;;;;;;52.13;35.13;;;;;;;;;;5015708;28;20237;-65
2022/03/24 01:29:22;;;;;;;58.63;36.50;;;;;;;;;;5033579;28;20679;-65
2022/03/24 01:31:48;;;;;;;60.50;37.33;;;;;;;;;;5033248;28;20214;-65
2022/03/24 01:34:16;;;;;;;50.60;33.73;;;;;;;;;;5015535;28;20183;-65
2022/03/24 01:36:42;;;;;;;43.33;31.97;;;;;;;;;;5035888;28;20741;-65
2022/03/24 01:39:08;;;;;;;46.60;29.00;;;;;;;;;;5038017;28;20207;-65
2022/03/24 01:41:35;;;;;;;46.37;30.67;;;;;;;;;;5037827;28;20179;-66
2022/03/24 01:44:01;;;;;;;49.20;33.63;;;;;;;;;;5019905;28;20196;-65
2022/03/24 01:46:26;;;;;;;46.30;32.80;;;;;;;;;;5037387;28;20179;-65
2022/03/24 01:48:52;;;;;;;40.00;30.97;;;;;;;;;;5037011;28;20294;-65
2022/03/24 01:51:18;;;;;;;43.43;31.47;;;;;;;;;;5037606;28;20620;-65
2022/03/24 01:53:44;;;;;;;41.90;29.47;;;;;;;;;;5037170;28;20201;-65
2022/03/24 01:56:11;;;;;;;43.30;28.90;;;;;;;;;;5020021;28;20183;-65
2022/03/24 01:58:39;;;;;;;41.77;30.50;;;;;;;;;;5038012;28;20211;-65
2022/03/24 02:01:26;;;;;;;43.90;29.80;;;;;;;;;;5020648;28;20553;-66
2022/03/24 02:03:53;;;;;;;40.23;29.50;;;;;;;;;;5037024;28;20191;-65
2022/03/24 02:06:19;;;;;;;40.03;29.00;;;;;;;;;;5037312;28;20179;-65
2022/03/24 02:08:46;;;;;;;40.23;27.70;;;;;;;;;;5036619;28;20195;-65
2022/03/24 02:11:12;;;;;;;39.07;28.67;;;;;;;;;;5037178;28;20179;-65
2022/03/24 02:13:38;;;;;;;36.50;27.77;;;;;;;;;;5018802;28;20187;-65
2022/03/24 02:16:10;;;;;;;41.65;29.40;;;;;;;;;;5018851;28;20179;-65
2022/03/24 02:18:36;;;;;;;43.23;29.13;;;;;;;;;;5036611;28;20805;-65
2022/03/24 02:21:02;;;;;;;38.33;28.23;;;;;;;;;;5036703;28;20293;-65
2022/03/24 02:23:28;;;;;;;40.97;27.37;;;;;;;;;;5036836;28;20203;-65
2022/03/24 02:25:55;;;;;;;37.83;27.67;;;;;;;;;;5018823;28;20186;-65
2022/03/24 02:28:22;;;;;;;39.93;27.40;;;;;;;;;;5036472;28;20209;-65
2022/03/24 02:30:50;;;;;;;40.60;28.57;;;;;;;;;;5036951;28;20179;-65
2022/03/24 02:33:20;;;;;;;35.60;25.83;;;;;;;;;;5036544;28;20262;-65
2022/03/24 02:35:47;;;;;;;40.77;28.10;;;;;;;;;;5020379;28;20187;-67
2022/03/24 02:38:13;;;;;;;38.03;27.83;;;;;;;;;;5039415;28;20238;-65
2022/03/24 02:40:39;;;;;;;37.97;28.70;;;;;;;;;;5039272;28;20175;-65
2022/03/24 02:43:05;;;;;;;38.73;28.40;;;;;;;;;;5039393;28;20201;-65
2022/03/24 02:45:31;;;;;;;38.73;28.07;;;;;;;;;;5036676;28;20643;-65
2022/03/24 02:47:57;;;;;;;38.70;27.23;;;;;;;;;;5017773;28;20210;-65
2022/03/24 02:50:23;;;;;;;40.00;28.07;;;;;;;;;;5018322;28;20190;-65
2022/03/24 02:52:49;;;;;;;35.83;26.43;;;;;;;;;;5018310;28;20554;-65
2022/03/24 02:55:15;;;;;;;40.60;28.10;;;;;;;;;;5018179;28;20201;-65
2022/03/24 02:57:41;;;;;;;43.10;28.33;;;;;;;;;;5035583;28;20222;-65
2022/03/24 03:00:08;;;;;;;38.23;27.57;;;;;;;;;;5035956;28;20199;-65
2022/03/24 03:02:34;;;;;;;45.73;28.97;;;;;;;;;;5038878;28;20175;-66
2022/03/24 03:05:01;;;;;;;41.30;30.30;;;;;;;;;;5035764;28;20199;-65
2022/03/24 03:07:28;;;;;;;39.10;30.03;;;;;;;;;;5035659;28;20607;-65
2022/03/24 03:09:54;;;;;;;40.17;28.57;;;;;;;;;;5018110;28;20183;-65
2022/03/24 03:12:20;;;;;;;45.23;28.43;;;;;;;;;;5035909;28;20631;-65
2022/03/24 03:14:47;;;;;;;47.77;28.83;;;;;;;;;;5035658;28;20218;-65
2022/03/24 03:17:15;;;;;;;39.20;28.23;;;;;;;;;;5035639;28;20718;-65
2022/03/24 03:19:42;;;;;;;42.13;28.17;;;;;;;;;;5017650;28;20309;-65
2022/03/24 03:22:09;;;;;;;37.93;27.57;;;;;;;;;;5035447;28;20175;-65
2022/03/24 03:24:35;;;;;;;40.77;29.10;;;;;;;;;;5035722;28;20176;-65
2022/03/24 03:27:04;;;;;;;38.93;27.53;;;;;;;;;;5035539;28;20187;-65
2022/03/24 03:29:30;;;;;;;41.57;27.40;;;;;;;;;;5035746;28;20210;-65
2022/03/24 03:31:56;;;;;;;39.00;26.43;;;;;;;;;;5035420;28;20639;-65
2022/03/24 03:34:26;;;;;;;39.53;27.93;;;;;;;;;;5035137;28;20183;-65
2022/03/24 03:36:53;;;;;;;39.47;27.30;;;;;;;;;;5034927;28;20209;-65
2022/03/24 03:39:19;;;;;;;38.77;26.47;;;;;;;;;;5035097;28;20195;-65
2022/03/24 03:41:46;;;;;;;37.50;27.43;;;;;;;;;;5034995;28;20179;-65
2022/03/24 03:44:12;;;;;;;44.07;29.13;;;;;;;;;;5035506;28;20183;-66
2022/03/24 03:46:38;;;;;;;35.20;27.37;;;;;;;;;;5017338;28;20179;-65
2022/03/24 03:49:07;;;;;;;38.17;27.23;;;;;;;;;;5034980;28;20195;-65
2022/03/24 03:51:34;;;;;;;40.33;27.80;;;;;;;;;;5017301;28;20214;-66
2022/03/24 03:54:00;;;;;;;38.87;29.00;;;;;;;;;;5017293;28;20191;-65
2022/03/24 03:56:26;;;;;;;42.30;29.57;;;;;;;;;;5016825;28;20214;-65
2022/03/24 03:58:52;;;;;;;37.70;27.37;;;;;;;;;;5034265;28;20214;-65
2022/03/24 04:01:18;;;;;;;40.93;29.00;;;;;;;;;;5034745;28;20198;-66
2022/03/24 04:03:44;;;;;;;39.63;28.83;;;;;;;;;;5047734;28;20170;-65
2022/03/24 04:06:11;;;;;;;44.17;28.43;;;;;;;;;;5031964;28;20250;-65
2022/03/24 04:08:38;;;;;;;44.07;28.73;;;;;;;;;;5032164;28;20195;-66
2022/03/24 04:11:07;;;;;;;41.60;29.60;;;;;;;;;;5044136;28;20175;-65
2022/03/24 04:13:33;;;;;;;39.47;28.57;;;;;;;;;;5040328;28;20886;-65
2022/03/24 04:15:59;;;;;;;42.67;29.67;;;;;;;;;;5035129;28;20175;-65
2022/03/24 04:18:25;;;;;;;42.40;29.87;;;;;;;;;;5016828;28;20206;-65
2022/03/24 04:20:51;;;;;;;42.03;28.90;;;;;;;;;;5034746;28;20176;-65
2022/03/24 04:23:17;;;;;;;40.03;29.50;;;;;;;;;;5016885;28;20662;-65
2022/03/24 04:25:43;;;;;;;43.70;29.73;;;;;;;;;;5034552;28;20202;-65
2022/03/24 04:28:10;;;;;;;44.07;29.63;;;;;;;;;;5034437;28;20735;-65
2022/03/24 04:30:36;;;;;;;38.50;29.13;;;;;;;;;;5034358;28;20179;-65
2022/03/24 04:33:02;;;;;;;44.70;30.37;;;;;;;;;;5016761;28;20183;-64
2022/03/24 04:35:29;;;;;;;45.23;31.03;;;;;;;;;;5034293;28;20185;-65
2022/03/24 04:37:55;;;;;;;43.47;29.13;;;;;;;;;;5033954;28;20242;-65
2022/03/24 04:40:21;;;;;;;43.50;28.33;;;;;;;;;;5016460;28;20636;-65
2022/03/24 04:42:49;;;;;;;41.63;30.40;;;;;;;;;;5016287;28;20190;-65
2022/03/24 04:45:17;;;;;;;41.30;29.13;;;;;;;;;;5034331;28;20175;-66
2022/03/24 04:47:43;;;;;;;40.87;29.20;;;;;;;;;;5016309;28;20203;-65
2022/03/24 04:50:10;;;;;;;45.27;30.00;;;;;;;;;;5033960;28;20184;-65
2022/03/24 04:52:36;;;;;;;41.80;29.33;;;;;;;;;;5016411;28;20799;-65
2022/03/24 04:55:02;;;;;;;40.23;28.50;;;;;;;;;;5034799;28;20913;-66
2022/03/24 04:57:28;;;;;;;42.40;29.13;;;;;;;;;;5015787;28;20688;-64
2022/03/24 04:59:54;;;;;;;42.25;32.75;;;;;;;;;;5014674;28;20488;-65
2022/03/24 05:02:20;;;;;;;42.92;31.90;;;;;;;;;;5014841;28;20388;-65
2022/03/24 05:04:46;;;;;;;40.40;32.53;;;;;;;;;;5032614;28;20367;-65
2022/03/24 05:07:13;;;;;;;41.13;32.78;;;;;;;;;;5032446;28;20863;-65
2022/03/24 05:09:39;;;;;;;39.30;31.63;;;;;;;;;;5032482;28;20470;-65
2022/03/24 05:12:05;;;;;;;39.67;32.28;;;;;;;;;;5014556;28;20383;-65
2022/03/24 05:14:32;;;;;;;38.65;31.88;;;;;;;;;;5015153;28;20721;-65
2022/03/24 05:16:58;;;;;;;41.05;32.05;;;;;;;;;;5015571;28;20399;-65
2022/03/24 05:19:24;;;;;;;40.30;31.75;;;;;;;;;;5015975;28;20387;-65
2022/03/24 05:21:50;;;;;;;44.20;33.28;;;;;;;;;;5032396;28;20422;-65
2022/03/24 05:24:17;;;;;;;42.33;32.85;;;;;;;;;;5014778;28;20471;-65
2022/03/24 05:26:43;;;;;;;41.03;33.03;;;;;;;;;;5032172;28;20835;-65
2022/03/24 05:29:09;;;;;;;40.47;31.97;;;;;;;;;;5032634;28;20541;-66
2022/03/24 05:31:35;;;;;;;42.65;32.47;;;;;;;;;;5014601;28;20383;-65
2022/03/24 05:34:01;;;;;;;43.20;31.90;;;;;;;;;;5014371;28;20390;-65
2022/03/24 05:36:28;;;;;;;42.15;32.83;;;;;;;;;;5014421;28;20949;-66
2022/03/24 05:38:53;;;;;;;44.17;33.47;;;;;;;;;;5032285;28;20379;-65
2022/03/24 05:41:19;;;;;;;43.38;32.00;;;;;;;;;;5032713;28;20851;-65
2022/03/24 05:44:02;;;;;;;41.08;32.20;;;;;;;;;;5032261;28;20384;-65
2022/03/24 05:46:32;;;;;;;40.03;31.83;;;;;;;;;;5032608;28;20371;-65
2022/03/24 05:48:58;;;;;;;40.72;32.00;;;;;;;;;;5014581;28;20918;-65
2022/03/24 05:51:24;;;;;;;40.50;32.47;;;;;;;;;;5032617;28;20375;-65
2022/03/24 05:53:50;;;;;;;45.30;32.60;;;;;;;;;;5032624;28;20433;-65
2022/03/24 05:56:16;;;;;;;41.38;32.83;;;;;;;;;;5032089;28;20437;-65
2022/03/24 05:58:42;;;;;;;44.73;32.83;;;;;;;;;;5032251;28;20810;-65
2022/03/24 06:01:09;;;;;;;44.00;33.35;;;;;;;;;;5032639;28;20386;-65
2022/03/24 06:03:35;;;;;;;39.80;32.28;;;;;;;;;;5033230;28;20729;-65
2022/03/24 06:06:02;;;;;;;45.97;32.50;;;;;;;;;;5033170;28;20402;-65
2022/03/24 06:08:28;;;;;;;43.47;32.20;;;;;;;;;;5014396;28;20387;-65
2022/03/24 06:10:54;;;;;;;42.80;32.05;;;;;;;;;;5014577;28;20391;-65
2022/03/24 06:13:20;;;;;;;40.15;31.92;;;;;;;;;;5032038;28;20864;-66
2022/03/24 06:15:50;;;;;;;40.85;31.80;;;;;;;;;;5032256;28;20383;-65
2022/03/24 06:18:16;;;;;;;41.95;30.83;;;;;;;;;;5031737;28;20415;-66
2022/03/24 06:20:43;;;;;;;45.08;31.05;;;;;;;;;;5049530;23;20438;-64
2022/03/24 06:23:10;;;;;;;43.33;32.45;;;;;;;;;;5034653;28;20464;-66
2022/03/24 06:25:37;;;;;;;39.88;31.15;;;;;;;;;;5054691;28;20370;-63
2022/03/24 06:28:03;;;;;;;43.30;31.80;;;;;;;;;;5036904;28;20447;-64
2022/03/24 06:30:29;;;;;;;42.28;30.70;;;;;;;;;;5054621;28;20808;-65
2022/03/24 06:32:56;;;;;;;40.73;28.53;;;;;;;;;;5037932;28;20186;-65
2022/03/24 06:35:22;;;;;;;32.77;26.17;;;;;;;;;;5056024;28;20273;-63
2022/03/24 06:37:50;;;;;;;39.87;26.73;;;;;;;;;;5056154;28;20561;-63
2022/03/24 06:40:16;;;;;;;38.27;26.47;;;;;;;;;;5055724;28;20225;-63
2022/03/24 06:42:43;;;;;;;39.07;26.30;;;;;;;;;;5055670;28;20175;-63
2022/03/24 06:45:10;;;;;;;34.07;25.50;;;;;;;;;;5056152;28;20190;-63
2022/03/24 06:47:36;;;;;;;38.80;27.37;;;;;;;;;;5037776;28;20603;-64
2022/03/24 06:50:02;;;;;;;40.07;27.80;;;;;;;;;;5055403;28;20205;-63
2022/03/24 06:52:28;;;;;;;42.80;29.17;;;;;;;;;;5037605;28;20205;-63
2022/03/24 06:54:55;;;;;;;38.67;27.33;;;;;;;;;;5055929;28;20638;-63
2022/03/24 06:57:21;;;;;;;39.37;26.30;;;;;;;;;;5055544;28;20226;-63
2022/03/24 06:59:47;;;;;;;40.93;27.93;;;;;;;;;;5055316;28;20208;-63
2022/03/24 07:02:13;;;;;;;39.80;27.40;;;;;;;;;;5055493;28;20175;-64
2022/03/24 07:04:39;;;;;;;39.80;29.23;;;;;;;;;;5055801;28;20183;-63
2022/03/24 07:07:05;;;;;;;41.80;28.40;;;;;;;;;;5055115;28;20618;-63
2022/03/24 07:09:31;;;;;;;41.63;28.87;;;;;;;;;;5037327;28;20211;-63
2022/03/24 07:11:57;;;;;;;45.87;31.23;;;;;;;;;;5055595;28;20182;-65
2022/03/24 07:14:24;;;;;;;44.70;29.20;;;;;;;;;;5037349;28;20175;-63
2022/03/24 07:16:51;;;;;;;40.13;29.27;;;;;;;;;;5055249;28;20612;-65
2022/03/24 07:19:19;;;;;;;42.00;29.73;;;;;;;;;;5055193;28;20177;-63
2022/03/24 07:21:45;;;;;;;41.17;31.67;;;;;;;;;;5055287;28;20606;-64
2022/03/24 07:24:11;;;;;;;42.03;32.23;;;;;;;;;;5037224;28;20178;-63
2022/03/24 07:26:37;;;;;;;39.27;29.87;;;;;;;;;;5037216;28;20183;-64
2022/03/24 07:29:03;;;;;;;38.37;29.53;;;;;;;;;;5037388;28;20627;-63
2022/03/24 07:31:29;;;;;;;38.53;28.63;;;;;;;;;;5055321;28;20289;-63
2022/03/24 07:33:58;;;;;;;39.47;29.13;;;;;;;;;;5054890;28;20221;-62
2022/03/24 07:36:25;;;;;;;42.37;28.83;;;;;;;;;;5037568;28;20189;-63
2022/03/24 07:38:52;;;;;;;40.90;30.50;;;;;;;;;;5055651;28;20167;-63
2022/03/24 07:41:18;;;;;;;47.47;31.80;;;;;;;;;;5054740;28;20241;-62
2022/03/24 07:43:44;;;;;;;41.30;29.73;;;;;;;;;;5054793;28;20171;-63
2022/03/24 07:46:10;;;;;;;43.60;30.97;;;;;;;;;;5055227;28;20197;-63
2022/03/24 07:48:38;;;;;;;41.47;29.50;;;;;;;;;;5055074;28;20201;-63
2022/03/24 07:51:05;;;;;;;43.67;30.17;;;;;;;;;;5054678;28;20233;-63
2022/03/24 07:53:49;;;;;;;42.47;29.43;;;;;;;;;;5054420;28;20631;-63
2022/03/24 07:56:24;;;;;;;41.63;29.87;;;;;;;;;;5054506;28;20221;-62
2022/03/24 07:58:50;;;;;;;45.57;31.63;;;;;;;;;;5054568;28;20265;-63
2022/03/24 08:01:24;;;;;;;47.50;32.13;;;;;;;;;;5036613;28;20198;-63
2022/03/24 08:03:52;;;;;;;45.33;32.13;;;;;;;;;;5054760;28;20162;-63
2022/03/24 08:06:18;;;;;;;43.93;31.70;;;;;;;;;;5054273;28;20654;-64
2022/03/24 08:08:44;;;;;;;42.20;31.57;;;;;;;;;;5054475;28;20208;-63
2022/03/24 08:11:10;;;;;;;45.00;30.67;;;;;;;;;;5036112;28;20202;-63
2022/03/24 08:13:36;;;;;;;47.27;32.03;;;;;;;;;;5054234;28;20249;-63
2022/03/24 08:16:02;;;;;;;45.13;31.40;;;;;;;;;;5054127;28;20193;-63
2022/03/24 08:18:28;;;;;;;45.63;30.53;;;;;;;;;;5054441;28;20225;-63
2022/03/24 08:20:54;;;;;;;38.63;30.43;;;;;;;;;;5053638;28;20245;-64
2022/03/24 08:23:21;;;;;;;42.70;31.30;;;;;;;;;;5054383;28;20185;-63
2022/03/24 08:25:47;;;;;;;48.73;31.27;;;;;;;;;;5054355;28;20198;-63
2022/03/24 08:28:13;;;;;;;44.63;31.50;;;;;;;;;;5035819;28;20225;-63
2022/03/24 08:30:40;;;;;;;47.53;31.67;;;;;;;;;;5054185;28;20190;-63
2022/03/24 08:33:06;;;;;;;39.57;31.53;;;;;;;;;;5053775;28;20565;-63
2022/03/24 08:35:32;;;;;;;40.60;31.20;;;;;;;;;;5036317;28;20244;-64
2022/03/24 08:37:59;;;;;;;40.60;30.73;;;;;;;;;;5035754;28;20205;-66
2022/03/24 08:40:25;;;;;;;42.70;31.43;;;;;;;;;;5035819;28;20209;-64
2022/03/24 08:42:51;;;;;;;44.70;31.43;;;;;;;;;;5053849;28;20177;-63
2022/03/24 08:45:18;;;;;;;42.57;30.83;;;;;;;;;;5052886;28;20171;-64
2022/03/24 08:47:43;;;;;;;41.30;29.93;;;;;;;;;;5053802;28;20661;-64
2022/03/24 08:50:10;;;;;;;43.07;31.13;;;;;;;;;;5053431;28;20194;-64
2022/03/24 08:52:36;;;;;;;50.63;32.40;;;;;;;;;;5053438;28;20187;-63
2022/03/24 08:55:06;;;;;;;42.37;32.07;;;;;;;;;;5053652;28;20540;-63
2022/03/24 08:57:32;;;;;;;51.17;33.60;;;;;;;;;;5053267;28;20210;-63
2022/03/24 09:00:00;;;;;;;43.27;32.83;;;;;;;;;;5053363;28;20270;-63
2022/03/24 09:02:27;;;;;;;48.37;33.10;;;;;;;;;;5035357;28;20273;-64
2022/03/24 09:04:53;;;;;;;48.70;32.23;;;;;;;;;;5035414;28;20325;-64
2022/03/24 09:07:19;;;;;;;47.77;31.77;;;;;;;;;;5053260;28;20535;-63
2022/03/24 09:09:45;;;;;;;43.77;31.53;;;;;;;;;;5053074;28;20191;-63
2022/03/24 09:12:11;;;;;;;46.77;33.33;;;;;;;;;;5053196;28;20684;-64
2022/03/24 09:14:38;;;;;;;44.73;31.20;;;;;;;;;;5035189;28;20194;-63
2022/03/24 09:17:04;;;;;;;41.47;32.30;;;;;;;;;;5053637;28;20206;-64
2022/03/24 09:19:30;;;;;;;52.17;33.67;;;;;;;;;;5052803;28;20190;-64
2022/03/24 09:21:56;;;;;;;46.00;31.87;;;;;;;;;;5053122;28;20188;-64
2022/03/24 09:24:22;;;;;;;45.30;32.90;;;;;;;;;;5053102;28;20182;-64
2022/03/24 09:26:48;;;;;;;47.97;32.60;;;;;;;;;;5035174;28;20193;-65
2022/03/24 09:29:14;;;;;;;46.73;33.03;;;;;;;;;;5053010;28;20204;-64
2022/03/24 09:31:40;;;;;;;45.30;32.63;;;;;;;;;;5035211;28;20336;-64
2022/03/24 09:34:08;;;;;;;43.40;31.80;;;;;;;;;;5035205;28;20224;-64
2022/03/24 09:36:35;;;;;;;42.47;32.93;;;;;;;;;;5053365;28;20182;-64
2022/03/24 09:39:01;;;;;;;45.37;34.13;;;;;;;;;;5053285;28;20653;-64
2022/03/24 09:41:27;;;;;;;50.40;35.37;;;;;;;;;;5052901;28;20195;-64
2022/03/24 09:43:53;;;;;;;47.87;34.43;;;;;;;;;;5053159;28;20198;-64
2022/03/24 09:46:20;;;;;;;51.53;32.00;;;;;;;;;;5035053;28;20262;-64
2022/03/24 09:48:46;;;;;;;47.87;34.53;;;;;;;;;;5053183;28;20186;-64
2022/03/24 09:51:12;;;;;;;47.70;33.97;;;;;;;;;;5052766;28;20206;-64
2022/03/24 09:53:39;;;;;;;45.93;32.50;;;;;;;;;;5053237;28;20261;-64
2022/03/24 09:56:06;;;;;;;49.30;33.93;;;;;;;;;;5035042;28;20183;-64
2022/03/24 09:58:32;;;;;;;46.70;33.00;;;;;;;;;;5056632;28;20202;-64
2022/03/24 10:00:58;;;;;;;51.83;32.80;;;;;;;;;;5038745;28;20217;-63
2022/03/24 10:03:26;;;;;;;47.53;34.77;;;;;;;;;;5056654;28;20186;-63
2022/03/24 10:06:07;;;;;;;49.77;34.07;;;;;;;;;;5038604;28;20227;-63
2022/03/24 10:08:33;;;;;;;43.90;33.03;;;;;;;;;;5056726;28;20582;-63
2022/03/24 10:11:03;;;;;;;44.60;32.70;;;;;;;;;;5038663;28;20569;-63
2022/03/24 10:13:43;;;;;;;47.23;33.43;;;;;;;;;;5038396;28;20235;-63
2022/03/24 10:16:10;;;;;;;51.57;33.77;;;;;;;;;;5057027;28;20646;-63
2022/03/24 10:18:36;;;;;;;47.60;33.23;;;;;;;;;;5056147;28;20312;-63
2022/03/24 10:21:05;;;;;;;47.37;34.47;;;;;;;;;;5056004;28;20214;-63
2022/03/24 10:23:43;;;;;;;48.23;33.20;;;;;;;;;;5056332;28;20545;-64
2022/03/24 10:26:09;;;;;;;42.20;30.50;;;;;;;;;;5056792;28;20163;-65
2022/03/24 10:28:35;;;;;;;46.47;31.40;;;;;;;;;;5038665;28;20189;-64
2022/03/24 10:31:03;;;;;;;45.17;33.60;;;;;;;;;;5038386;28;20198;-64
2022/03/24 10:33:33;;;;;;;46.67;33.00;;;;;;;;;;5056378;28;20662;-63
2022/03/24 10:36:05;;;;;;;48.37;34.63;;;;;;;;;;5057380;28;20218;-65
2022/03/24 10:38:32;;;;;;;47.87;34.93;;;;;;;;;;5056454;28;20209;-65
2022/03/24 10:41:11;;;;;;;46.40;34.33;;;;;;;;;;5038241;28;20195;-64
2022/03/24 10:43:37;;;;;;;47.37;33.60;;;;;;;;;;5055845;28;20174;-65
2022/03/24 10:46:11;;;;;;;53.67;33.40;;;;;;;;;;5037935;28;20183;-67
2022/03/24 10:48:37;;;;;;;49.30;33.60;;;;;;;;;;5038037;28;20213;-66
2022/03/24 10:51:03;;;;;;;50.10;34.57;;;;;;;;;;5055723;28;20241;-64
2022/03/24 10:53:38;;;;;;;47.93;34.63;;;;;;;;;;5037846;28;20259;-66
2022/03/24 10:56:07;;;;;;;47.60;35.53;;;;;;;;;;5056441;28;20311;-63
2022/03/24 10:58:38;;;;;;;46.10;32.50;;;;;;;;;;5037648;28;20217;-63
2022/03/24 11:01:06;;;;;;;51.00;34.97;;;;;;;;;;5055838;28;20240;-64
2022/03/24 11:03:32;;;;;;;44.20;31.33;;;;;;;;;;5055335;28;20179;-63
2022/03/24 11:06:11;;;;;;;49.67;34.47;;;;;;;;;;5055272;28;20185;-62
2022/03/24 11:08:38;;;;;;;48.67;32.93;;;;;;;;;;5054988;28;20174;-64
2022/03/24 11:11:08;;;;;;;46.67;33.20;;;;;;;;;;5055677;28;20201;-63
2022/03/24 11:13:46;;;;;;;47.37;33.23;;;;;;;;;;5055319;28;20648;-63
2022/03/24 11:16:12;;;;;;;47.23;32.77;;;;;;;;;;5037248;28;20186;-63
2022/03/24 11:18:39;;;;;;;46.93;34.00;;;;;;;;;;5055175;28;20256;-64
2022/03/24 11:21:20;;;;;;;44.80;33.60;;;;;;;;;;5037194;28;20222;-63
2022/03/24 11:23:46;;;;;;;46.40;33.00;;;;;;;;;;5055467;28;20174;-63
2022/03/24 11:26:13;;;;;;;45.73;33.13;;;;;;;;;;5037256;28;20186;-65
2022/03/24 11:28:40;;;;;;;45.57;32.63;;;;;;;;;;5055050;28;20220;-64
2022/03/24 11:31:11;;;;;;;47.50;31.83;;;;;;;;;;5055266;28;20194;-63
2022/03/24 11:33:39;;;;;;;48.27;34.10;;;;;;;;;;5055368;28;20190;-63
2022/03/24 11:36:06;;;;;;;44.40;32.50;;;;;;;;;;5055541;28;20182;-64
2022/03/24 11:38:32;;;;;;;46.37;32.40;;;;;;;;;;5054990;28;20254;-63
2022/03/24 11:41:01;;;;;;;45.87;33.93;;;;;;;;;;5055221;28;20225;-63
2022/03/24 11:43:27;;;;;;;43.13;32.87;;;;;;;;;;5037045;28;20615;-63
2022/03/24 11:46:04;;;;;;;42.30;33.23;;;;;;;;;;5054816;28;20267;-63
2022/03/24 11:48:34;;;;;;;46.90;34.23;;;;;;;;;;5037008;28;20186;-64
2022/03/24 11:51:04;;;;;;;46.90;32.43;;;;;;;;;;5054754;28;20281;-63
2022/03/24 11:53:34;;;;;;;46.57;31.27;;;;;;;;;;5037054;28;20654;-64
2022/03/24 11:56:01;;;;;;;49.97;33.27;;;;;;;;;;5055000;28;20159;-63
2022/03/24 11:58:28;;;;;;;46.60;34.33;;;;;;;;;;5037041;28;20213;-64
2022/03/24 12:00:54;;;;;;;48.20;34.17;;;;;;;;;;5054658;28;20247;-64
2022/03/24 12:03:39;;;;;;;50.20;33.80;;;;;;;;;;5055198;28;20604;-64
2022/03/24 12:06:05;;;;;;;49.90;34.83;;;;;;;;;;5036891;28;20665;-63
2022/03/24 12:08:42;;;;;;;49.23;34.13;;;;;;;;;;5054906;28;20178;-63
2022/03/24 12:11:27;;;;;;;43.33;32.63;;;;;;;;;;5054829;28;20210;-64
2022/03/24 12:13:56;;;;;;;42.77;32.47;;;;;;;;;;5037070;28;20182;-65
2022/03/24 12:16:24;;;;;;;51.90;34.00;;;;;;;;;;5054741;28;20189;-64
2022/03/24 12:18:51;;;;;;;46.53;33.83;;;;;;;;;;5037031;28;20640;-63
2022/03/24 12:21:21;;;;;;;48.70;32.40;;;;;;;;;;5054507;28;20579;-63
2022/03/24 12:24:02;;;;;;;49.60;33.07;;;;;;;;;;5054375;28;20526;-63
2022/03/24 12:26:29;;;;;;;47.97;29.10;;;;;;;;;;5036276;28;20599;-63
2022/03/24 12:29:14;;;;;;;31.20;22.73;;;;;;;;;;5054292;28;20182;-64
2022/03/24 12:31:56;;;;;;;32.50;23.95;;;;;;;;;;5080174;22;20203;-61
2022/03/24 12:34:23;;;;;;;35.07;25.83;;;;;;;;;;5033854;28;20187;-63
2022/03/24 12:36:49;;;;;;;35.17;25.00;;;;;;;;;;5035843;28;20201;-63
2022/03/24 12:39:35;;;;;;;34.33;26.07;;;;;;;;;;5034304;28;20167;-63
2022/03/24 12:42:12;;;;;;;38.60;26.17;;;;;;;;;;5034597;28;20226;-63
2022/03/24 12:44:57;;;;;;;37.23;27.53;;;;;;;;;;5016771;28;20202;-63
2022/03/24 12:47:34;;;;;;;37.33;27.33;;;;;;;;;;5016680;28;20697;-63
2022/03/24 12:50:07;;;;;;;38.03;28.73;;;;;;;;;;5034259;28;20168;-63
2022/03/24 12:52:49;;;;;;;38.30;26.80;;;;;;;;;;5016315;28;20311;-64
2022/03/24 12:55:22;;;;;;;36.47;28.37;;;;;;;;;;5033948;28;20189;-64
2022/03/24 12:57:54;;;;;;;44.17;29.53;;;;;;;;;;5033677;28;20203;-64
2022/03/24 13:00:20;;;;;;;40.10;29.23;;;;;;;;;;5034041;28;20174;-64
2022/03/24 13:02:46;;;;;;;37.53;27.20;;;;;;;;;;5016463;28;20234;-64
2022/03/24 13:05:13;;;;;;;40.77;30.80;;;;;;;;;;5034176;28;20254;-64
2022/03/24 13:07:39;;;;;;;43.93;28.60;;;;;;;;;;5034233;28;20250;-64
2022/03/24 13:10:09;;;;;;;44.17;31.60;;;;;;;;;;5034813;28;20179;-64
2022/03/24 13:12:37;;;;;;;44.17;30.17;;;;;;;;;;5034261;28;20571;-63
2022/03/24 13:15:03;;;;;;;46.13;33.13;;;;;;;;;;5033994;28;20178;-63
2022/03/24 13:17:30;;;;;;;51.80;33.90;;;;;;;;;;5034008;28;20269;-64
2022/03/24 13:20:00;;;;;;;49.77;32.30;;;;;;;;;;5034076;28;20179;-64
2022/03/24 13:22:28;;;;;;;46.77;32.73;;;;;;;;;;5034324;28;20198;-64
2022/03/24 13:24:56;;;;;;;52.70;32.80;;;;;;;;;;5016328;28;20183;-64
2022/03/24 13:27:23;;;;;;;42.97;32.67;;;;;;;;;;5016149;28;20190;-64
2022/03/24 13:29:49;;;;;;;43.60;32.20;;;;;;;;;;5016584;28;20186;-64
2022/03/24 13:32:16;;;;;;;48.37;32.57;;;;;;;;;;5018393;28;20647;-64
2022/03/24 13:34:49;;;;;;;48.00;32.07;;;;;;;;;;5038219;28;20179;-64
2022/03/24 13:37:16;;;;;;;41.90;30.80;;;;;;;;;;5038164;28;20210;-63
2022/03/24 13:39:54;;;;;;;41.53;31.10;;;;;;;;;;5037847;28;20659;-64
2022/03/24 13:42:21;;;;;;;47.60;31.47;;;;;;;;;;5038340;28;20195;-64
2022/03/24 13:44:48;;;;;;;46.87;30.63;;;;;;;;;;5037571;28;20183;-63
2022/03/24 13:47:14;;;;;;;48.47;33.53;;;;;;;;;;5037992;28;20175;-64
2022/03/24 13:49:41;;;;;;;46.63;34.30;;;;;;;;;;5037711;28;20175;-64
2022/03/24 13:52:07;;;;;;;48.37;34.17;;;;;;;;;;5037638;28;20199;-64
2022/03/24 13:54:36;;;;;;;;;;;;;;;;;;5037806;28;20067;-64
2022/03/24 13:57:02;;;;;;;;;;;;;;;;;;5037661;28;19909;-64
2022/03/24 13:59:28;;;;;;;;;;;;;;;;;;5037587;28;19909;-65
2022/03/24 14:01:53;;;;;;;;;;;;;;;;;;5037317;28;19905;-64
2022/03/24 14:04:20;;;;;;;;;;;;;;;;;;5019889;28;19905;-64
2022/03/24 14:06:45;;;;;;;;;;;;;;;;;;5037316;28;19999;-64
2022/03/24 14:09:11;;;;;;;;;;;;;;;;;;5037443;28;19905;-66
2022/03/24 14:11:37;;;;;;;;;;;;;;;;;;5036846;28;19909;-65
2022/03/24 14:14:07;;;;;;;;;;;;;;;;;;5037431;28;19905;-64
2022/03/24 14:16:33;;;;;;;;;;;;;;;;;;5036889;28;19905;-65
2022/03/24 14:18:59;;;;;;;;;;;;;;;;;;5036923;28;20332;-65
2022/03/24 14:21:25;;;;;;;;;;;;;;;;;;5036768;28;19912;-65
2022/03/24 14:23:50;;;;;;;;;;;;;;;;;;5018844;28;19947;-65